Time;durP1;ratioP1;P1;durP2;ratioP2;P2;SDS_P1;SDS_P2;PMS_P1;PMS_P2;Temp;Humidity;BMP_temperature;BMP_pressure;BME280_temperature;BME280_humidity;BME280_pressure;Samples;Min_cycle;Max_cycle;Signal;HPM_P1;HPM_P2
2023/04/23 00:00:50;;;;;;;;;;;;;;;-142.75;100.00;76759.28;4971664;28;20308;-66
2023/04/23 00:03:18;;;;;;;;;;;;;;;-142.75;100.00;76775.03;4972013;28;20000;-66
2023/04/23 00:05:43;;;;;;;;;;;;;;;-142.75;100.00;76790.78;4971704;28;20441;-66
2023/04/23 00:08:09;;;;;;;;;;;;;;;-142.75;100.00;76786.84;4979715;28;20000;-66
2023/04/23 00:10:35;;;;;;;;;;;;;;;-142.75;100.00;76798.66;4972255;28;19914;-66
2023/04/23 00:13:00;;;;;;;;;;;;;;;-142.75;100.00;76802.56;4964802;28;20523;-66
2023/04/23 00:15:26;;;;;;;;;;;;;;;-142.75;100.00;76794.69;4971907;28;19925;-66
2023/04/23 00:17:51;;;;;;;;;;;;;;;-142.75;100.00;76796.69;4970876;28;19969;-66
2023/04/23 00:20:16;;;;;;;;;;;;;;;-142.75;100.00;76804.53;4969771;28;19937;-66
2023/04/23 00:22:42;;;;;;;;;;;;;;;-142.75;100.00;76794.69;4970572;28;20354;-63
2023/04/23 00:25:08;;;;;;;;;;;;;;;-142.75;100.00;76782.91;4970853;28;20290;-63
2023/04/23 00:27:33;;;;;;;;;;;;;;;-142.75;100.00;76778.97;4970946;28;19948;-63
2023/04/23 00:29:58;;;;;;;;;;;;;;;-142.75;100.00;76769.13;4970627;28;19921;-63
2023/04/23 00:32:24;;;;;;;;;;;;;;;-142.75;100.00;76761.25;4970596;28;20366;-62
2023/04/23 00:34:49;;;;;;;;;;;;;;;-142.75;100.00;76755.34;4970300;28;19921;-66
2023/04/23 00:37:15;;;;;;;;;;;;;;;-142.75;100.00;76749.44;4970789;28;19961;-66
2023/04/23 00:39:40;;;;;;;;;;;;;;;-142.75;100.00;76747.47;4962951;28;20380;-66
2023/04/23 00:42:11;;;;;;;;;;;;;;;-142.75;100.00;76743.53;4972725;28;19921;-65
2023/04/23 00:44:36;;;;;;;;;;;;;;;-142.75;100.00;76747.47;4970021;28;19961;-66
2023/04/23 00:47:01;;;;;;;;;;;;;;;-142.75;100.00;76741.56;4963432;28;19926;-66
2023/04/23 00:49:27;;;;;;;;;;;;;;;-142.75;100.00;76739.59;4970137;28;20302;-66
2023/04/23 00:51:52;;;;;;;;;;;;;;;-142.75;100.00;76743.53;4969187;28;19914;-66
2023/04/23 00:54:17;;;;;;;;;;;;;;;-142.75;100.00;76723.84;4970195;28;19914;-66
2023/04/23 00:56:43;;;;;;;;;;;;;;;-142.75;100.00;76727.78;4970338;28;19964;-66
2023/04/23 00:59:08;;;;;;;;;;;;;;;-142.75;100.00;76719.91;4970373;28;19921;-66
2023/04/23 01:01:34;;;;;;;;;;;;;;;-142.75;100.00;76733.69;4969040;28;20103;-65
2023/04/23 01:03:59;;;;;;;;;;;;;;;-142.75;100.00;76723.84;4969874;28;19930;-66
2023/04/23 01:06:27;;;;;;;;;;;;;;;-142.75;100.00;76725.81;4970348;28;19914;-66
2023/04/23 01:08:52;;;;;;;;;;;;;;;-142.75;100.00;76719.91;4971336;28;19921;-67
2023/04/23 01:11:18;;;;;;;;;;;;;;;-142.75;100.00;76715.97;4968968;28;19922;-67
2023/04/23 01:13:44;;;;;;;;;;;;;;;-142.75;100.00;76710.06;4989230;28;19914;-67
2023/04/23 01:16:10;;;;;;;;;;;;;;;-142.75;100.00;76706.13;4975884;28;19918;-66
2023/04/23 01:18:35;;;;;;;;;;;;;;;-142.75;100.00;76696.28;4981829;28;19930;-67
2023/04/23 01:21:01;;;;;;;;;;;;;;;-142.75;100.00;76680.53;4982039;28;19917;-67
2023/04/23 01:23:26;;;;;;;;;;;;;;;-142.75;100.00;76668.72;4993221;28;19952;-67
2023/04/23 01:25:52;;;;;;;;;;;;;;;-142.75;100.00;76668.72;4982098;28;19918;-66
2023/04/23 01:28:18;;;;;;;;;;;;;;;-142.75;100.00;76660.84;4974371;28;19914;-67
2023/04/23 01:30:44;;;;;;;;;;;;;;;-142.75;100.00;76662.81;4974204;28;20383;-66
2023/04/23 01:33:10;;;;;;;;;;;;;;;-142.75;100.00;76652.97;4973741;28;20462;-66
2023/04/23 01:35:35;;;;;;;;;;;;;;;-142.75;100.00;76651.00;4973827;28;20052;-66
2023/04/23 01:38:02;;;;;;;;;;;;;;;-142.75;100.00;76641.16;4974630;28;19914;-66
2023/04/23 01:40:27;;;;;;;;;;;;;;;-142.75;100.00;76629.34;4973890;28;19914;-66
2023/04/23 01:42:52;;;;;;;;;;;;;;;-142.75;100.00;76625.41;4973561;28;19960;-67
2023/04/23 01:45:20;;;;;;;;;;;;;;;-142.75;100.00;76615.56;4973799;28;19961;-67
2023/04/23 01:47:46;;;;;;;;;;;;;;;-142.75;100.00;76609.66;4988647;28;19914;-66
2023/04/23 01:50:12;;;;;;;;;;;;;;;-142.75;100.00;76613.59;4973737;28;19925;-66
2023/04/23 01:52:37;;;;;;;;;;;;;;;-142.75;100.00;76597.84;4988317;28;19914;-67
2023/04/23 01:55:02;;;;;;;;;;;;;;;-142.75;100.00;76613.59;4973389;28;20311;-67
2023/04/23 01:57:28;;;;;;;;;;;;;;;-142.75;100.00;76593.91;4973669;28;20016;-67
2023/04/23 01:59:56;;;;;;;;;;;;;;;-142.75;100.00;76588.00;4973494;28;19921;-66
2023/04/23 02:02:22;;;;;;;;;;;;;;;-142.75;100.00;76584.06;4973280;28;19918;-67
2023/04/23 02:04:48;;;;;;;;;;;;;;;-142.75;100.00;76599.81;4973361;28;19921;-67
2023/04/23 02:07:14;;;;;;;;;;;;;;;-142.75;100.00;76582.09;4973557;28;19914;-68
2023/04/23 02:09:39;;;;;;;;;;;;;;;-142.75;100.00;76584.06;4974053;28;19920;-66
2023/04/23 02:12:04;;;;;;;;;;;;;;;-142.75;100.00;76586.03;4973336;28;19914;-67
2023/04/23 02:14:30;;;;;;;;;;;;;;;-142.75;100.00;76586.03;4973031;28;19914;-67
2023/04/23 02:16:56;;;;;;;;;;;;;;;-142.75;100.00;76582.09;4990655;28;19914;-67
2023/04/23 02:19:21;;;;;;;;;;;;;;;-142.75;100.00;76578.16;4992358;28;20398;-67
2023/04/23 02:21:46;;;;;;;;;;;;;;;-142.75;100.00;76582.09;4992463;28;19914;-67
2023/04/23 02:24:12;;;;;;;;;;;;;;;-142.75;100.00;76574.22;4990825;28;19914;-66
2023/04/23 02:26:37;;;;;;;;;;;;;;;-142.75;100.00;76578.16;4992383;28;19914;-66
2023/04/23 02:29:02;;;;;;;;;;;;;;;-142.75;100.00;76588.00;4992367;28;20367;-66
2023/04/23 02:31:27;;;;;;;;;;;;;;;-142.75;100.00;76589.97;4992297;28;20423;-66
2023/04/23 02:33:53;;;;;;;;;;;;;;;-142.75;100.00;76578.16;4991769;28;19921;-66
2023/04/23 02:36:18;;;;;;;;;;;;;;;-142.75;100.00;76578.16;4990788;28;19918;-66
2023/04/23 02:38:44;;;;;;;;;;;;;;;-142.75;100.00;76591.94;4993061;28;19967;-66
2023/04/23 02:41:10;;;;;;;;;;;;;;;-142.75;100.00;76589.97;4992162;28;19969;-66
2023/04/23 02:43:35;;;;;;;;;;;;;;;-142.75;100.00;76584.06;4991791;28;20417;-66
2023/04/23 02:46:06;;;;;;;;;;;;;;;-142.75;100.00;76586.03;4991643;28;20465;-66
2023/04/23 02:48:33;;;;;;;;;;;;;;;-142.75;100.00;76595.88;4992105;28;20383;-67
2023/04/23 02:50:58;;;;;;;;;;;;;;;-142.75;100.00;76588.00;4991542;28;19929;-66
2023/04/23 02:53:24;;;;;;;;;;;;;;;-142.75;100.00;76576.19;4990310;28;19913;-66
2023/04/23 02:55:49;;;;;;;;;;;;;;;-142.75;100.00;76570.28;4990345;28;19917;-67
2023/04/23 02:58:14;;;;;;;;;;;;;;;-142.75;100.00;76566.34;4990507;28;19918;-66
2023/04/23 03:00:40;;;;;;;;;;;;;;;-142.75;100.00;76562.41;4991653;28;19924;-66
2023/04/23 03:03:05;;;;;;;;;;;;;;;-142.75;100.00;76566.34;4975301;28;20405;-67
2023/04/23 03:05:30;;;;;;;;;;;;;;;-142.75;100.00;76572.25;4972007;28;19914;-66
2023/04/23 03:07:55;;;;;;;;;;;;;;;-142.75;100.00;76574.22;4973206;28;19920;-66
2023/04/23 03:10:21;;;;;;;;;;;;;;;-142.75;100.00;76582.09;4972378;28;19972;-66
2023/04/23 03:12:46;;;;;;;;;;;;;;;-142.75;100.00;76566.34;4971951;28;19960;-66
2023/04/23 03:15:11;;;;;;;;;;;;;;;-142.75;100.00;76578.16;4971980;28;19929;-66
2023/04/23 03:17:37;;;;;;;;;;;;;;;-142.75;100.00;76572.25;4972167;28;20128;-66
2023/04/23 03:20:03;;;;;;;;;;;;;;;-142.75;100.00;76562.41;4971874;28;19964;-66
2023/04/23 03:22:28;;;;;;;;;;;;;;;-142.75;100.00;76556.50;4986599;28;19914;-66
2023/04/23 03:24:53;;;;;;;;;;;;;;;-142.75;100.00;76554.53;4971982;28;19913;-64
2023/04/23 03:27:19;;;;;;;;;;;;;;;-142.75;100.00;76560.44;4987711;28;20291;-66
2023/04/23 03:29:45;;;;;;;;;;;;;;;-142.75;100.00;76564.38;4986800;28;20323;-66
2023/04/23 03:32:10;;;;;;;;;;;;;;;-142.75;100.00;76552.56;4970446;28;20339;-66
2023/04/23 03:34:35;;;;;;;;;;;;;;;-142.75;100.00;76556.50;4971564;28;19913;-67
2023/04/23 03:37:00;;;;;;;;;;;;;;;-142.75;100.00;76558.47;4971193;28;20585;-67
2023/04/23 03:39:25;;;;;;;;;;;;;;;-142.75;100.00;76566.34;4971280;28;19921;-68
2023/04/23 03:41:51;;;;;;;;;;;;;;;-142.75;100.00;76556.50;4970291;28;19925;-66
2023/04/23 03:44:16;;;;;;;;;;;;;;;-142.75;100.00;76562.41;4971271;28;19914;-67
2023/04/23 03:46:41;;;;;;;;;;;;;;;-142.75;100.00;76568.31;4971610;28;19984;-66
2023/04/23 03:49:06;;;;;;;;;;;;;;;-142.75;100.00;76560.44;4970019;28;20339;-66
2023/04/23 03:51:31;;;;;;;;;;;;;;;-142.75;100.00;76558.47;4971571;28;19921;-66
2023/04/23 03:53:57;;;;;;;;;;;;;;;-142.75;100.00;76578.16;4979974;28;19914;-66
2023/04/23 03:56:22;;;;;;;;;;;;;;;-142.75;100.00;76582.09;4990505;28;19918;-66
2023/04/23 03:58:47;;;;;;;;;;;;;;;-142.75;100.00;76576.19;4990518;28;19914;-67
2023/04/23 04:01:12;;;;;;;;;;;;;;;-142.75;100.00;76586.03;4990569;28;19922;-66
2023/04/23 04:03:37;;;;;;;;;;;;;;;-142.75;100.00;76580.13;4990071;28;19920;-66
2023/04/23 04:06:03;;;;;;;;;;;;;;;-142.75;100.00;76574.22;4990466;28;19940;-67
2023/04/23 04:08:28;;;;;;;;;;;;;;;-142.75;100.00;76572.25;4991565;28;19913;-67
2023/04/23 04:10:54;;;;;;;;;;;;;;;-142.75;100.00;76582.09;4989267;28;19936;-64
2023/04/23 04:13:19;;;;;;;;;;;;;;;-142.75;100.00;76574.22;4990064;28;19913;-66
2023/04/23 04:15:44;;;;;;;;;;;;;;;-142.75;100.00;76576.19;4990185;28;19980;-67
2023/04/23 04:18:09;;;;;;;;;;;;;;;-142.75;100.00;76566.34;4972715;28;19918;-66
2023/04/23 04:20:34;;;;;;;;;;;;;;;-142.75;100.00;76562.41;4990116;28;19914;-65
2023/04/23 04:23:00;;;;;;;;;;;;;;;-142.75;100.00;76566.34;4989717;28;19920;-66
2023/04/23 04:25:27;;;;;;;;;;;;;;;-142.75;100.00;76568.31;4971736;28;19914;-67
2023/04/23 04:27:52;;;;;;;;;;;;;;;-142.75;100.00;76566.34;4970928;28;20005;-66
2023/04/23 04:30:17;;;;;;;;;;;;;;;-142.75;100.00;76570.28;4970712;28;19997;-66
2023/04/23 04:32:44;;;;;;;;;;;;;;;-142.75;100.00;76570.28;4969128;28;20405;-66
2023/04/23 04:35:11;;;;;;;;;;;;;;;-142.75;100.00;76566.34;4970615;28;19922;-66
2023/04/23 04:37:36;;;;;;;;;;;;;;;-142.75;100.00;76566.34;4970768;28;19961;-66
2023/04/23 04:40:03;;;;;;;;;;;;;;;-142.75;100.00;76589.97;4971122;28;19914;-66
2023/04/23 04:42:29;;;;;;;;;;;;;;;-142.75;100.00;76566.34;4968574;28;19914;-66
2023/04/23 04:44:57;;;;;;;;;;;;;;;-142.75;100.00;76566.34;4969897;28;19934;-66
2023/04/23 04:47:22;;;;;;;;;;;;;;;-142.75;100.00;76582.09;4968619;28;19917;-66
2023/04/23 04:49:47;;;;;;;;;;;;;;;-142.75;100.00;76578.16;4969151;28;19977;-67
2023/04/23 04:52:12;;;;;;;;;;;;;;;-142.75;100.00;76572.25;4970021;28;19985;-67
2023/04/23 04:54:38;;;;;;;;;;;;;;;-142.75;100.00;76574.22;4968055;28;19922;-66
2023/04/23 04:57:03;;;;;;;;;;;;;;;-142.75;100.00;76578.16;4969906;28;19922;-66
2023/04/23 04:59:28;;;;;;;;;;;;;;;-142.75;100.00;76572.25;4969819;28;19914;-66
2023/04/23 05:01:53;;;;;;;;;;;;;;;-142.75;100.00;76576.19;4984483;28;19914;-66
2023/04/23 05:04:18;;;;;;;;;;;;;;;-142.75;100.00;76558.47;4969463;28;19914;-66
2023/04/23 05:06:44;;;;;;;;;;;;;;;-142.75;100.00;76558.47;4969652;28;19921;-66
2023/04/23 05:09:09;;;;;;;;;;;;;;;-142.75;100.00;76550.59;4970662;28;19918;-66
2023/04/23 05:11:34;;;;;;;;;;;;;;;-142.75;100.00;76576.19;4969704;28;19921;-66
2023/04/23 05:14:00;;;;;;;;;;;;;;;-142.75;100.00;76568.31;4969390;28;20275;-66
2023/04/23 05:16:25;;;;;;;;;;;;;;;-142.75;100.00;76548.63;4984012;28;20358;-66
2023/04/23 05:18:51;;;;;;;;;;;;;;;-142.75;100.00;76562.41;4985176;28;20190;-66
2023/04/23 05:21:16;;;;;;;;;;;;;;;-142.75;100.00;76562.41;4969744;28;19913;-66
2023/04/23 05:23:41;;;;;;;;;;;;;;;-142.75;100.00;76546.66;4969835;28;20522;-67
2023/04/23 05:26:06;;;;;;;;;;;;;;;-142.75;100.00;76534.84;4969568;28;19929;-66
2023/04/23 05:28:31;;;;;;;;;;;;;;;-142.75;100.00;76527.00;4969340;28;20339;-66
2023/04/23 05:30:57;;;;;;;;;;;;;;;-142.75;100.00;76527.00;4967968;28;19920;-66
2023/04/23 05:33:22;;;;;;;;;;;;;;;-142.75;100.00;76546.66;4969295;28;19984;-67
2023/04/23 05:35:48;;;;;;;;;;;;;;;-142.75;100.00;76521.09;4969313;28;19949;-66
2023/04/23 05:38:13;;;;;;;;;;;;;;;-142.75;100.00;76523.06;4985497;28;19921;-67
2023/04/23 05:40:38;;;;;;;;;;;;;;;-142.75;100.00;76515.19;4988988;28;19920;-66
2023/04/23 05:43:03;;;;;;;;;;;;;;;-142.75;100.00;76509.28;4983312;28;20302;-66
2023/04/23 05:45:29;;;;;;;;;;;;;;;-142.75;100.00;76503.38;4969319;28;20299;-66
2023/04/23 05:47:54;;;;;;;;;;;;;;;-142.75;100.00;76487.63;4969303;28;19914;-67
2023/04/23 05:50:20;;;;;;;;;;;;;;;-142.75;100.00;76475.81;4969338;28;19914;-66
2023/04/23 05:52:45;;;;;;;;;;;;;;;-142.75;100.00;76487.63;4969277;28;19988;-66
2023/04/23 05:55:10;;;;;;;;;;;;;;;-142.75;100.00;76475.81;4968734;28;19926;-67
2023/04/23 05:57:36;;;;;;;;;;;;;;;-142.75;100.00;76473.84;4969194;28;19920;-66
2023/04/23 06:00:02;;;;;;;;;;;;;;;-142.75;100.00;76467.94;4969554;28;19914;-66
2023/04/23 06:02:28;;;;;;;;;;;;;;;-142.75;100.00;76456.13;4972597;28;19914;-66
2023/04/23 06:04:53;;;;;;;;;;;;;;;-142.75;100.00;76448.25;4973030;28;19961;-66
2023/04/23 06:07:19;;;;;;;;;;;;;;;-142.75;100.00;76432.50;4987714;28;19914;-66
2023/04/23 06:09:44;;;;;;;;;;;;;;;-142.75;100.00;76422.66;4973557;28;20303;-67
2023/04/23 06:12:10;;;;;;;;;;;;;;;-142.75;100.00;76385.25;4972679;28;19929;-66
2023/04/23 06:14:35;;;;;;;;;;;;;;;-142.75;100.00;76387.22;4971104;28;20394;-67
2023/04/23 06:17:00;;;;;;;;;;;;;;;-142.75;100.00;76393.13;4972346;28;19914;-66
2023/04/23 06:19:26;;;;;;;;;;;;;;;-142.75;100.00;76397.06;4987283;28;19914;-65
2023/04/23 06:21:52;;;;;;;;;;;;;;;-142.75;100.00;76399.03;4972807;28;19925;-66
2023/04/23 06:24:17;;;;;;;;;;;;;;;-142.75;100.00;76389.19;4972255;28;20310;-68
2023/04/23 06:26:42;;;;;;;;;;;;;;;-142.75;100.00;76369.50;4972298;28;20045;-66
2023/04/23 06:29:07;;;;;;;;;;;;;;;-142.75;100.00;76345.91;4972392;28;19997;-66
2023/04/23 06:31:33;;;;;;;;;;;;;;;-142.75;100.00;76357.69;4972456;28;19976;-66
2023/04/23 06:33:58;;;;;;;;;;;;;;;-142.75;100.00;76336.06;4972032;28;19996;-67
2023/04/23 06:36:23;;;;;;;;;;;;;;;-142.75;100.00;76324.25;4972151;28;19918;-67
2023/04/23 06:38:48;;;;;;;;;;;;;;;-142.75;100.00;76316.38;4973011;28;19956;-66
2023/04/23 06:41:14;;;;;;;;;;;;;;;-142.75;100.00;76296.69;4970868;28;19922;-67
2023/04/23 06:43:39;;;;;;;;;;;;;;;-142.75;100.00;76298.66;4986506;28;19914;-66
2023/04/23 06:46:05;;;;;;;;;;;;;;;-142.75;100.00;76277.00;4972171;28;19914;-66
2023/04/23 06:48:31;;;;;;;;;;;;;;;-142.75;100.00;76286.84;4971876;28;19937;-67
2023/04/23 06:50:56;;;;;;;;;;;;;;;-142.75;100.00;76257.31;4972152;28;19960;-66
2023/04/23 06:53:21;;;;;;;;;;;;;;;-142.75;100.00;76267.16;4974022;28;20356;-66
2023/04/23 06:55:48;;;;;;;;;;;;;;;-142.75;100.00;76290.78;4990783;28;19918;-66
2023/04/23 06:58:13;;;;;;;;;;;;;;;-142.75;100.00;76277.00;4991084;28;19924;-66
2023/04/23 07:00:39;;;;;;;;;;;;;;;-142.75;100.00;76280.94;4991166;28;20004;-66
2023/04/23 07:03:05;;;;;;;;;;;;;;;-142.75;100.00;76251.41;4990581;28;19929;-66
2023/04/23 07:05:30;;;;;;;;;;;;;;;-142.75;100.00;76215.97;4990725;28;20355;-67
2023/04/23 07:07:55;;;;;;;;;;;;;;;-142.75;100.00;76215.97;4989797;28;19937;-66
2023/04/23 07:10:20;;;;;;;;;;;;;;;-142.75;100.00;76221.88;4991813;28;20349;-66
2023/04/23 07:12:47;;;;;;;;;;;;;;;-142.75;100.00;76194.34;4989571;28;19959;-67
2023/04/23 07:15:12;;;;;;;;;;;;;;;-142.75;100.00;76217.94;4990622;28;19928;-66
2023/04/23 07:17:37;;;;;;;;;;;;;;;-142.75;100.00;76172.69;4990833;28;19914;-67
2023/04/23 07:20:07;;;;;;;;;;;;;;;-142.75;100.00;76168.75;4989403;28;19961;-66
2023/04/23 07:22:32;;;;;;;;;;;;;;;-142.75;100.00;76162.84;4990366;28;19914;-66
2023/04/23 07:24:58;;;;;;;;;;;;;;;-142.75;100.00;76145.13;4990640;28;19924;-66
2023/04/23 07:27:23;;;;;;;;;;;;;;;-142.75;100.00;76137.25;4990521;28;19992;-66
2023/04/23 07:29:49;;;;;;;;;;;;;;;-142.75;100.00;76107.72;4972080;28;20048;-66
2023/04/23 07:32:14;;;;;;;;;;;;;;;-142.75;100.00;76095.91;4970977;28;19921;-66
2023/04/23 07:34:39;;;;;;;;;;;;;;;-142.75;100.00;76101.81;4985517;28;20405;-66
2023/04/23 07:37:05;;;;;;;;;;;;;;;-142.75;100.00;76066.41;4969855;28;19913;-67
2023/04/23 07:39:31;;;;;;;;;;;;;;;-142.75;100.00;76080.16;4970395;28;19914;-66
2023/04/23 07:41:57;;;;;;;;;;;;;;;-142.75;100.00;76042.78;4970877;28;19922;-66
2023/04/23 07:44:22;;;;;;;;;;;;;;;-142.75;100.00;75985.69;4970812;28;19917;-66
2023/04/23 07:46:47;;;;;;;;;;;;;;;-142.75;100.00;76074.25;4969468;28;20353;-66
2023/04/23 07:49:12;;;;;;;;;;;;;;;-142.75;100.00;76046.72;4972385;28;19920;-66
2023/04/23 07:51:38;;;;;;;;;;;;;;;-142.75;100.00;76046.72;4970264;28;19929;-66
2023/04/23 07:54:03;;;;;;;;;;;;;;;-142.75;100.00;76052.63;4970235;28;19914;-65
2023/04/23 07:56:31;;;;;;;;;;;;;;;-142.75;100.00;76019.16;4976525;28;19929;-67
2023/04/23 07:58:57;;;;;;;;;;;;;;;-142.75;100.00;76017.19;4972598;28;20455;-66
2023/04/23 08:01:22;;;;;;;;;;;;;;;-142.75;100.00;76021.13;4970667;28;20033;-66
2023/04/23 08:03:47;;;;;;;;;;;;;;;-142.75;100.00;76007.34;4970140;28;19914;-67
2023/04/23 08:06:12;;;;;;;;;;;;;;;-142.75;100.00;75920.75;4970523;28;20283;-67
2023/04/23 08:08:38;;;;;;;;;;;;;;;-142.75;100.00;75883.34;4970221;28;19914;-67
2023/04/23 08:11:06;;;;;;;;;;;;;;;-142.75;100.00;75928.63;4970518;28;19913;-66
2023/04/23 08:13:32;;;;;;;;;;;;;;;-142.75;100.00;75928.63;4969560;28;19925;-67
2023/04/23 08:15:57;;;;;;;;;;;;;;;-142.75;100.00;75966.00;4973749;28;19917;-65
2023/04/23 08:18:22;;;;;;;;;;;;;;;-142.75;100.00;75899.09;4978404;28;19985;-62
2023/04/23 08:20:47;;;;;;;;;;;;;;;-142.75;100.00;75940.44;4967487;28;19914;-62
2023/04/23 08:23:13;;;;;;;;;;;;;;;-142.75;100.00;75908.94;4978436;28;19914;-62
2023/04/23 08:25:38;;;;;;;;;;;;;;;-142.75;100.00;75845.97;4976466;28;20012;-63
2023/04/23 08:28:03;;;;;;;;;;;;;;;-142.75;100.00;75838.09;4977185;28;19913;-64
2023/04/23 08:30:28;;;;;;;;;;;;;;;-142.75;100.00;75814.47;4978390;28;19934;-64
2023/04/23 08:32:53;;;;;;;;;;;;;;;-142.75;100.00;75781.00;4976620;28;20291;-65
2023/04/23 08:35:19;;;;;;;;;;;;;;;-142.75;100.00;75782.97;4974487;28;19929;-65
2023/04/23 08:37:45;;;;;;;;;;;;;;;-142.75;100.00;75824.31;4982693;28;19914;-65
2023/04/23 08:40:10;;;;;;;;;;;;;;;-142.75;100.00;75779.03;4964330;28;19922;-66
2023/04/23 08:42:49;;;;;;;;;;;;;;;-142.75;100.00;75794.78;4973583;28;19914;-64
2023/04/23 08:45:15;;;;;;;;;;;;;;;-142.75;100.00;75798.72;4974930;28;19914;-64
2023/04/23 08:47:43;;;;;;;;;;;;;;;-142.75;100.00;75781.00;4978388;28;19914;-65
2023/04/23 08:50:09;;;;;;;;;;;;;;;-142.75;100.00;75822.34;4971177;28;19956;-65
2023/04/23 08:52:37;;;;;;;;;;;;;;;-142.75;100.00;75836.13;4974717;28;19949;-65
2023/04/23 08:55:03;;;;;;;;;;;;;;;-142.75;100.00;75853.84;4977873;28;19953;-65
2023/04/23 08:57:29;;;;;;;;;;;;;;;-142.75;100.00;75869.56;4973191;28;19965;-66
2023/04/23 08:59:55;;;;;;;;;;;;;;;-142.75;100.00;75845.97;4967553;28;19921;-66
2023/04/23 09:02:21;;;;;;;;;;;;;;;-142.75;100.00;75834.16;4970830;28;19953;-66
2023/04/23 09:04:47;;;;;;;;;;;;;;;-142.75;100.00;75855.81;4970398;28;19972;-66
2023/04/23 09:07:13;;;;;;;;;;;;;;;-142.75;100.00;75936.50;4970592;28;20013;-67
2023/04/23 09:09:39;;;;;;;;;;;;;;;-142.75;100.00;75956.19;4975240;28;19954;-67
2023/04/23 09:12:05;;;;;;;;;;;;;;;-142.75;100.00;75952.25;4973673;28;19929;-67
2023/04/23 09:14:31;;;;;;;;;;;;;;;-142.75;100.00;75952.25;4970678;28;20375;-66
2023/04/23 09:16:56;;;;;;;;;;;;;;;-142.75;100.00;75912.88;4967574;28;19925;-64
2023/04/23 09:19:21;;;;;;;;;;;;;;;-142.75;100.00;75906.97;4970174;28;19917;-65
2023/04/23 09:21:46;;;;;;;;;;;;;;;-142.75;100.00;75891.22;4961509;28;19921;-66
2023/04/23 09:24:13;;;;;;;;;;;;;;;-142.75;100.00;75857.78;4969071;28;19914;-64
2023/04/23 09:26:48;;;;;;;;;;;;;;;-142.75;100.00;75845.97;4971873;28;20406;-65
2023/04/23 09:29:17;;;;;;;;;;;;;;;-142.75;100.00;75851.88;4969326;28;19914;-65
2023/04/23 09:31:46;;;;;;;;;;;;;;;-142.75;100.00;75812.50;4968569;28;19976;-66
2023/04/23 09:34:14;;;;;;;;;;;;;;;-142.75;100.00;75784.94;4969454;28;19929;-65
2023/04/23 09:36:39;;;;;;;;;;;;;;;-142.75;100.00;75810.53;4971136;28;19921;-65
2023/04/23 09:39:11;;;;;;;;;;;;;;;-142.75;100.00;75836.13;5005413;23;19989;-68
2023/04/23 09:41:36;;;;;;;;;;;;;;;-142.75;100.00;75883.34;4993077;28;20370;-68
2023/04/23 09:44:02;;;;;;;;;;;;;;;-142.75;100.00;75847.94;4992751;28;19929;-69
2023/04/23 09:46:41;;;;;;;;;;;;;;;-142.75;100.00;75891.22;4993800;28;19920;-67
2023/04/23 09:49:07;;;;;;;;;;;;;;;-142.75;100.00;75889.25;4987832;28;19961;-67
2023/04/23 09:51:35;;;;;;;;;;;;;;;-142.75;100.00;75863.66;4979497;28;19929;-68
2023/04/23 09:54:01;;;;;;;;;;;;;;;-142.75;100.00;75853.84;4970735;28;20402;-69
2023/04/23 09:56:26;;;;;;;;;;;;;;;-142.75;100.00;75857.78;4972072;28;21664;-68
2023/04/23 09:58:51;;;;;;;;;;;;;;;-142.75;100.00;75830.22;4973918;28;20000;-69
2023/04/23 10:01:17;;;;;;;;;;;;;;;-142.75;100.00;75820.38;4991001;28;19914;-69
2023/04/23 10:03:42;;;;;;;;;;;;;;;-142.75;100.00;75808.56;4992838;28;19993;-68
2023/04/23 10:06:12;;;;;;;;;;;;;;;-142.75;100.00;75818.41;4975497;28;21086;-66
2023/04/23 10:08:38;;;;;;;;;;;;;;;-142.75;100.00;75842.03;4969603;28;19964;-69
2023/04/23 10:11:03;;;;;;;;;;;;;;;-142.75;100.00;75853.84;4973040;28;19918;-69
2023/04/23 10:13:29;;;;;;;;;;;;;;;-142.75;100.00;75861.69;4972476;28;19913;-68
2023/04/23 10:15:55;;;;;;;;;;;;;;;-142.75;100.00;75826.28;4980297;28;20008;-66
2023/04/23 10:18:20;;;;;;;;;;;;;;;-142.75;100.00;75842.03;4971525;28;19920;-67
2023/04/23 10:20:46;;;;;;;;;;;;;;;-142.75;100.00;75826.28;4974934;28;19914;-68
2023/04/23 10:23:11;;;;;;;;;;;;;;;-142.75;100.00;75808.56;4974959;28;19929;-67
2023/04/23 10:25:38;;;;;;;;;;;;;;;-142.75;100.00;75818.41;4969347;28;19957;-68
2023/04/23 10:28:03;;;;;;;;;;;;;;;-142.75;100.00;75826.28;4966701;28;20303;-68
2023/04/23 10:30:29;;;;;;;;;;;;;;;-142.75;100.00;75822.34;4966125;28;19922;-70
2023/04/23 10:32:55;;;;;;;;;;;;;;;-142.75;100.00;75838.09;4967567;28;19924;-68
2023/04/23 10:35:21;;;;;;;;;;;;;;;-142.75;100.00;75849.91;4970336;28;19979;-68
2023/04/23 10:37:47;;;;;;;;;;;;;;;-142.75;100.00;75814.47;4970336;28;19921;-67
2023/04/23 10:40:13;;;;;;;;;;;;;;;-142.75;100.00;75818.41;4980540;28;19979;-68
2023/04/23 10:42:39;;;;;;;;;;;;;;;-142.75;100.00;75830.22;4969101;28;20047;-68
2023/04/23 10:45:22;;;;;;;;;;;;;;;-142.75;100.00;75885.31;4974336;28;19996;-67
2023/04/23 10:47:48;;;;;;;;;;;;;;;-142.75;100.00;75861.69;4967252;28;20288;-69
2023/04/23 10:50:22;;;;;;;;;;;;;;;-142.75;100.00;75855.81;4970172;28;19921;-68
2023/04/23 10:52:50;;;;;;;;;;;;;;;-142.75;100.00;75818.41;4969759;28;19926;-66
2023/04/23 10:55:33;;;;;;;;;;;;;;;-142.75;100.00;75806.59;4971238;28;19922;-68
2023/04/23 10:58:02;;;;;;;;;;;;;;;-142.75;100.00;75838.09;4970767;28;20402;-67
2023/04/23 11:00:29;;;;;;;;;;;;;;;-142.75;100.00;75849.91;4969631;28;19960;-68
2023/04/23 11:02:54;;;;;;;;;;;;;;;-142.75;100.00;75840.06;4969071;28;19914;-69
2023/04/23 11:05:24;;;;;;;;;;;;;;;-142.75;100.00;75861.69;4970224;28;19918;-68
2023/04/23 11:08:06;;;;;;;;;;;;;;;-142.75;100.00;75820.38;4972504;28;19920;-69
2023/04/23 11:10:32;;;;;;;;;;;;;;;-142.75;100.00;75822.34;4973325;28;19920;-69
2023/04/23 11:13:17;;;;;;;;;;;;;;;-142.75;100.00;75849.91;4973108;28;19914;-69
2023/04/23 11:15:43;;;;;;;;;;;;;;;-142.75;100.00;75838.09;4988652;28;19976;-69
2023/04/23 11:18:10;;;;;;;;;;;;;;;-142.75;100.00;75838.09;4966359;28;19996;-68
2023/04/23 11:20:35;;;;;;;;;;;;;;;-142.75;100.00;75822.34;4969228;28;19929;-69
2023/04/23 11:23:00;;;;;;;;;;;;;;;-142.75;100.00;75804.63;4974907;28;19918;-69
2023/04/23 11:25:26;;;;;;;;;;;;;;;-142.75;100.00;75792.81;4977286;28;19926;-69
2023/04/23 11:27:53;;;;;;;;;;;;;;;-142.75;100.00;75788.88;4979199;28;20016;-67
2023/04/23 11:30:22;;;;;;;;;;;;;;;-142.75;100.00;75782.97;4982841;28;19936;-69
2023/04/23 11:32:51;;;;;;;;;;;;;;;-142.75;100.00;75765.25;4972542;28;20039;-69
2023/04/23 11:35:17;;;;;;;;;;;;;;;-142.75;100.00;75771.16;4971460;28;19929;-70
2023/04/23 11:37:43;;;;;;;;;;;;;;;-142.75;100.00;75743.63;4973552;28;19925;-70
2023/04/23 11:40:09;;;;;;;;;;;;;;;-142.75;100.00;75763.28;4972469;28;19914;-69
2023/04/23 11:42:46;;;;;;;;;;;;;;;-142.75;100.00;75714.09;4975939;28;19914;-67
2023/04/23 11:45:17;;;;;;;;;;;;;;;-142.75;100.00;75664.91;4968927;28;19926;-69
2023/04/23 11:47:44;;;;;;;;;;;;;;;-142.75;100.00;75643.25;4966385;28;20048;-69
2023/04/23 11:50:09;;;;;;;;;;;;;;;-142.75;100.00;75621.59;4972061;28;19972;-69
2023/04/23 11:52:35;;;;;;;;;;;;;;;-142.75;100.00;75647.19;4967951;28;19914;-69
2023/04/23 11:55:06;;;;;;;;;;;;;;;-142.75;100.00;75664.91;4966606;28;19918;-69
2023/04/23 11:57:36;;;;;;;;;;;;;;;-142.75;100.00;75607.81;4973518;28;19983;-66
2023/04/23 12:00:11;;;;;;;;;;;;;;;-142.75;100.00;75621.59;4967929;28;20375;-68
2023/04/23 12:02:36;;;;;;;;;;;;;;;-142.75;100.00;75562.56;4971923;28;19936;-68
2023/04/23 12:05:04;;;;;;;;;;;;;;;-142.75;99.06;75548.78;4980482;28;20391;-68
2023/04/23 12:07:32;;;;;;;;;;;;;;;-142.75;90.85;75603.88;4970465;28;19914;-68
2023/04/23 12:09:58;;;;;;;;;;;;;;;-142.75;94.84;75647.19;4979086;28;19914;-67
2023/04/23 12:12:31;;;;;;;;;;;;;;;-142.75;100.00;75659.00;4969792;28;19930;-69